createdAt,value
2019-04-24T00:00:22.248Z,16.10
2019-04-24T00:10:51.278Z,16.00
2019-04-24T00:16:09.955Z,15.90
2019-04-24T00:21:15.617Z,15.80
2019-04-24T00:26:24.380Z,15.80
2019-04-24T00:31:35.635Z,15.50
2019-04-24T00:36:42.995Z,15.40
2019-04-24T00:41:47.174Z,15.50
2019-04-24T00:57:06.805Z,15.00
2019-04-24T01:02:31.967Z,15.10
2019-04-24T01:13:02.018Z,14.80
2019-04-24T01:17:55.787Z,14.60
2019-04-24T01:23:16.378Z,14.60
2019-04-24T01:28:23.505Z,14.40
2019-04-24T01:33:49.669Z,14.40
2019-04-24T01:38:43.198Z,14.50
2019-04-24T01:43:50.945Z,14.30
2019-04-24T01:49:03.691Z,14.40
2019-04-24T01:54:02.964Z,14.20
2019-04-24T01:59:11.783Z,14.00
2019-04-24T02:04:15.266Z,13.90
2019-04-24T02:09:23.678Z,13.90
2019-04-24T02:19:30.492Z,14.00
2019-04-24T02:24:48.859Z,13.80
2019-04-24T02:29:45.135Z,13.90
2019-04-24T02:35:19.310Z,13.70
2019-04-24T02:40:23.893Z,13.70
2019-04-24T02:55:54.192Z,13.50
2019-04-24T03:00:47.197Z,13.40
2019-04-24T03:05:57.798Z,13.50
2019-04-24T03:16:54.551Z,13.10
2019-04-24T03:37:32.476Z,13.00
2019-04-24T03:43:03.537Z,12.90
2019-04-24T03:47:52.072Z,13.00
2019-04-24T03:52:30.281Z,13.10
2019-04-24T04:03:06.982Z,12.80
2019-04-24T04:29:11.918Z,12.50
2019-04-24T04:39:28.822Z,12.60
2019-04-24T05:00:04.837Z,12.50
2019-04-24T05:20:38.977Z,12.80
2019-04-24T05:25:59.540Z,12.80
2019-04-24T05:31:36.119Z,12.60
2019-04-24T05:36:37.397Z,12.60
2019-04-24T05:41:37.602Z,12.80
2019-04-24T05:46:44.523Z,12.80
2019-04-24T05:51:54.710Z,13.00
2019-04-24T05:57:46.587Z,13.20
2019-04-24T06:08:08.548Z,13.30
2019-04-24T06:18:59.503Z,13.60
2019-04-24T06:29:23.193Z,13.90
2019-04-24T06:49:43.004Z,14.40
2019-04-24T06:54:48.657Z,14.80
2019-04-24T07:00:44.199Z,14.90
2019-04-24T07:06:14.100Z,15.20
2019-04-24T07:27:24.242Z,16.50
2019-04-24T07:38:01.003Z,17.40
2019-04-24T07:43:14.992Z,17.70
2019-04-24T07:48:15.666Z,17.80
2019-04-24T07:53:48.687Z,18.20
2019-04-24T07:58:51.430Z,18.50
2019-04-24T08:04:01.694Z,18.70
2019-04-24T08:09:33.093Z,18.70
2019-04-24T08:19:49.474Z,19.20
2019-04-24T08:24:58.693Z,19.80
2019-04-24T08:34:51.648Z,19.80
2019-04-24T08:45:24.305Z,20.10
2019-04-24T08:56:07.223Z,20.50
2019-04-24T09:01:26.952Z,20.70
2019-04-24T09:06:30.052Z,21.10
2019-04-24T09:12:06.120Z,21.40
2019-04-24T09:17:12.951Z,21.90
2019-04-24T09:32:58.721Z,22.20
2019-04-24T09:38:10.255Z,22.80
2019-04-24T09:43:33.589Z,23.00
2019-04-24T09:54:24.239Z,23.10
2019-04-24T09:59:30.783Z,23.40
2019-04-24T10:05:08.128Z,23.70
2019-04-24T10:15:22.177Z,24.00
2019-04-24T10:20:28.829Z,24.10
2019-04-24T10:25:33.315Z,24.60
2019-04-24T10:41:56.740Z,24.80
2019-04-24T10:47:42.321Z,24.70
2019-04-24T10:52:20.747Z,25.00
2019-04-24T10:57:34.297Z,25.40
2019-04-24T11:08:29.379Z,25.70
2019-04-24T11:13:55.963Z,25.80
2019-04-24T11:19:19.957Z,26.10
2019-04-24T11:24:39.706Z,26.00
2019-04-24T11:40:46.499Z,25.70
2019-04-24T11:46:00.857Z,25.80
2019-04-24T11:51:44.487Z,26.00
2019-04-24T12:02:06.657Z,26.30
2019-04-24T12:07:11.594Z,26.40
2019-04-24T12:12:16.726Z,26.70
2019-04-24T12:17:34.482Z,26.70
2019-04-24T12:28:19.677Z,26.30
2019-04-24T12:33:22.367Z,26.50
2019-04-24T12:44:01.981Z,26.90
2019-04-24T12:49:11.576Z,27.20
2019-04-24T13:10:10.906Z,28.10
2019-04-24T13:15:17.944Z,28.20
2019-04-24T13:19:58.648Z,28.10
2019-04-24T13:25:48.426Z,28.20
2019-04-24T13:36:26.559Z,28.20
2019-04-24T13:41:16.653Z,28.40
2019-04-24T13:46:23.703Z,28.50
2019-04-24T13:51:33.351Z,28.40
2019-04-24T13:56:38.145Z,28.60
2019-04-24T14:02:01.228Z,28.50
2019-04-24T14:07:04.301Z,28.30
2019-04-24T14:12:47.526Z,28.30
2019-04-24T14:17:07.553Z,28.40
2019-04-24T14:22:55.227Z,28.30
2019-04-24T14:28:06.428Z,28.40
2019-04-24T14:33:20.132Z,28.30
2019-04-24T14:43:28.460Z,28.40
2019-04-24T14:53:46.680Z,28.50
2019-04-24T14:58:59.076Z,28.30
2019-04-24T15:03:58.063Z,28.20
2019-04-24T15:09:11.449Z,27.90
2019-04-24T15:14:22.997Z,27.90
2019-04-24T15:19:45.895Z,28.00
2019-04-24T15:24:40.764Z,28.00
2019-04-24T15:29:55.034Z,28.40
2019-04-24T15:35:02.933Z,28.40
2019-04-24T15:45:12.014Z,28.20
2019-04-24T15:50:23.413Z,28.10
2019-04-24T15:55:02.511Z,27.90
2019-04-24T16:00:53.133Z,27.80
2019-04-24T16:05:23.124Z,27.80
2019-04-24T16:10:35.578Z,27.70
2019-04-24T16:16:16.658Z,27.70
2019-04-24T16:26:26.458Z,27.10
2019-04-24T16:31:38.709Z,27.00
2019-04-24T16:36:48.929Z,24.10
2019-04-24T16:41:59.368Z,22.30
2019-04-24T16:57:01.483Z,20.20
2019-04-24T17:02:05.201Z,20.60
2019-04-24T17:07:16.670Z,19.80
2019-04-24T17:18:15.380Z,19.30
2019-04-24T17:23:06.431Z,19.10
2019-04-24T17:28:27.846Z,18.70
2019-04-24T17:38:29.476Z,17.80
2019-04-24T17:49:17.832Z,17.00
2019-04-24T17:58:56.821Z,16.90
2019-04-24T18:04:02.897Z,16.40
2019-04-24T18:09:11.468Z,16.00
2019-04-24T18:14:18.828Z,15.50
2019-04-24T18:19:24.189Z,15.10
2019-04-24T18:24:49.630Z,15.10
2019-04-24T18:29:54.940Z,15.00
2019-04-24T18:35:00.173Z,15.10
2019-04-24T18:40:07.086Z,14.90
2019-04-24T18:45:15.106Z,14.90
2019-04-24T18:50:19.797Z,14.80
2019-04-24T18:55:25.444Z,14.70
2019-04-24T19:00:32.488Z,14.40
2019-04-24T19:05:36.201Z,14.20
2019-04-24T19:10:41.389Z,14.30
2019-04-24T19:15:45.178Z,14.60
2019-04-24T19:20:50.238Z,14.70
2019-04-24T19:25:55.607Z,14.80
2019-04-24T19:31:00.540Z,14.80
2019-04-24T19:36:05.849Z,14.80
2019-04-24T19:41:12.796Z,15.00
2019-04-24T19:46:19.141Z,15.00
2019-04-24T19:51:27.064Z,15.00
2019-04-24T19:56:33.127Z,15.10
2019-04-24T20:01:38.907Z,15.00
2019-04-24T20:06:43.334Z,15.00
2019-04-24T20:11:51.313Z,15.20
2019-04-24T20:16:55.640Z,14.80
2019-04-24T20:21:59.865Z,14.90
2019-04-24T20:27:04.466Z,14.80
2019-04-24T20:32:09.005Z,14.80
2019-04-24T20:37:15.284Z,14.70
2019-04-24T20:42:22.959Z,14.60
2019-04-24T20:47:29.050Z,14.50
2019-04-24T20:52:34.578Z,14.50
2019-04-24T20:57:40.100Z,14.30
2019-04-24T21:02:45.298Z,14.10
2019-04-24T21:08:03.376Z,14.00
2019-04-24T21:13:08.756Z,13.70
2019-04-24T21:18:14.864Z,13.90
2019-04-24T21:23:21.508Z,13.60
2019-04-24T21:28:27.543Z,13.80
2019-04-24T21:33:33.390Z,13.60
2019-04-24T21:38:38.796Z,13.70
2019-04-24T21:43:43.952Z,13.60
2019-04-24T21:48:49.118Z,13.70
2019-04-24T21:54:03.915Z,13.50
2019-04-24T21:59:01.464Z,13.30
2019-04-24T22:04:28.055Z,13.30
2019-04-24T22:09:34.824Z,13.20
2019-04-24T22:14:42.097Z,13.00
2019-04-24T22:19:49.090Z,13.20
2019-04-24T22:25:23.356Z,13.00
2019-04-24T22:30:47.301Z,12.70
2019-04-24T22:35:52.456Z,12.90
2019-04-24T22:41:02.414Z,12.80
2019-04-24T22:46:06.392Z,12.70
2019-04-24T22:51:10.199Z,12.60
2019-04-24T22:56:15.062Z,12.30
2019-04-24T23:01:20.111Z,12.10
2019-04-24T23:06:24.187Z,12.00
2019-04-24T23:11:28.832Z,12.00
2019-04-24T23:16:33.755Z,12.10
2019-04-24T23:21:55.620Z,11.90
2019-04-24T23:27:05.483Z,12.00
2019-04-24T23:32:21.247Z,11.90
2019-04-24T23:37:27.126Z,11.70
2019-04-24T23:42:32.522Z,11.60
2019-04-24T23:47:41.588Z,11.60
2019-04-24T23:52:47.205Z,11.40
2019-04-24T23:57:52.270Z,11.40
